Observation data for Goodlett on 12/13/2019      Previous  Date       Current Mesonet Observations  Soil Data  Daily Summary Page  Observations in Plain Language
KGDS 130600Z 01004KT 03/01 A2996 RMK A01 T00300013  RH  090%=      5-min Rain = 0
KGDS 130605Z 01003KT 03/01 A2996 RMK A01 T00310013  RH  089%=      5-min Rain = 0
KGDS 130610Z 01003KT 03/01 A2995 RMK A01 T00320014  RH  089%=      5-min Rain = 0
KGDS 130615Z 00003KT 03/01 A2995 RMK A01 T00310012  RH  088%=      5-min Rain = 0
KGDS 130620Z 36003KT 03/01 A2995 RMK A01 T00290010  RH  088%=      5-min Rain = 0
KGDS 130625Z 36003KT 03/01 A2995 RMK A01 T00280010  RH  089%=      5-min Rain = 0
KGDS 130630Z 35003KT 03/01 A2995 RMK A01 T00300012  RH  089%=      5-min Rain = 0
KGDS 130635Z 00003KT 03/01 A2994 RMK A01 T00310013  RH  089%=      5-min Rain = 0
KGDS 130640Z 00003KT 03/01 A2994 RMK A01 T00320012  RH  088%=      5-min Rain = 0
KGDS 130645Z 00003KT 03/01 A2994 RMK A01 T00310011  RH  088%=      5-min Rain = 0
KGDS 130650Z 00003KT 03/01 A2994 RMK A01 T00310012  RH  089%=      5-min Rain = 0
KGDS 130655Z 00004KT 03/01 A2994 RMK A01 T00290011  RH  089%=      5-min Rain = 0
KGDS 130700Z 01004KT 03/01 A2993 RMK A01 T00280009  RH  089%=      5-min Rain = 0
KGDS 130705Z 00004KT 03/01 A2993 RMK A01 T00280011  RH  090%=      5-min Rain = 0
KGDS 130710Z 36004KT 03/01 A2993 RMK A01 T00280010  RH  089%=      5-min Rain = 0
KGDS 130715Z 35004KT 03/01 A2993 RMK A01 T00270010  RH  090%=      5-min Rain = 0
KGDS 130720Z 35003KT 03/01 A2993 RMK A01 T00290011  RH  090%=      5-min Rain = 0
KGDS 130725Z 35002KT 03/01 A2992 RMK A01 T00300013  RH  089%=      5-min Rain = 0
KGDS 130730Z 00002KT 03/02 A2992 RMK A01 T00330015  RH  089%=      5-min Rain = 0
KGDS 130735Z 03001KT 04/02 A2992 RMK A01 T00350016  RH  089%=      5-min Rain = 0
KGDS 130740Z 01002KT 04/02 A2991 RMK A01 T00380018  RH  088%=      5-min Rain = 0
KGDS 130745Z 35003KT 03/01 A2992 RMK A01 T00340013  RH  087%=      5-min Rain = 0
KGDS 130750Z 34005KT 03/01 A2992 RMK A01 T00320012  RH  088%=      5-min Rain = 0
KGDS 130755Z 33006KT 03/01 A2992 RMK A01 T00300011  RH  089%=      5-min Rain = 0
KGDS 130800Z 32005KT 03/01 A2992 RMK A01 T00290010  RH  089%=      5-min Rain = 0
KGDS 130805Z 33005KT 03/01 A2992 RMK A01 T00250007  RH  089%=      5-min Rain = 0
KGDS 130810Z 33006KT 02/01 A2992 RMK A01 T00230007  RH  090%=      5-min Rain = 0
KGDS 130815Z 32007KT 02/01 A2992 RMK A01 T00230008  RH  091%=      5-min Rain = 0
KGDS 130820Z 31008KT 02/01 A2993 RMK A01 T00220008  RH  091%=      5-min Rain = 0
KGDS 130825Z 31008KT 02/01 A2993 RMK A01 T00240009  RH  091%=      5-min Rain = 0
KGDS 130830Z 31009KT 02/01 A2993 RMK A01 T00200006  RH  091%=      5-min Rain = 0
KGDS 130835Z 31008KT 02/00 A2992 RMK A01 T00180004  RH  091%=      5-min Rain = 0
KGDS 130840Z 31007KT 02/00 A2992 RMK A01 T00180004  RH  092%=      5-min Rain = 0
KGDS 130845Z 32008KT 02/01 A2992 RMK A01 T00180005  RH  092%=      5-min Rain = 0
KGDS 130850Z 32009KT 02/01 A2992 RMK A01 T00220010  RH  093%=      5-min Rain = 0
KGDS 130855Z 32008KT 03/01 A2992 RMK A01 T00260012  RH  092%=      5-min Rain = 0
KGDS 130900Z 32007KT 02/01 A2991 RMK A01 T00240009  RH  091%=      5-min Rain = 0
KGDS 130905Z 33007KT 02/01 A2991 RMK A01 T00230008  RH  092%=      5-min Rain = 0
KGDS 130910Z 33007KT 02/01 A2991 RMK A01 T00210007  RH  091%=      5-min Rain = 0
KGDS 130915Z 32007KT 02/00 A2991 RMK A01 T00170003  RH  091%=      5-min Rain = 0
KGDS 130920Z 32007KT 02/00 A2991 RMK A01 T00160003  RH  092%=      5-min Rain = 0
KGDS 130925Z 31007KT 02/00 A2992 RMK A01 T00170004  RH  092%=      5-min Rain = 0
KGDS 130930Z 32007KT 02/00 A2991 RMK A01 T00160003  RH  092%=      5-min Rain = 0
KGDS 130935Z 32007KT 02/00 A2991 RMK A01 T00170003  RH  092%=      5-min Rain = 0
KGDS 130940Z 33006KT 02/00 A299 RMK A01 T00150001  RH  092%=      5-min Rain = 0
KGDS 130945Z 34006KT 01/00 A299 RMK A01 T001300-0  RH  092%=      5-min Rain = 0
KGDS 130950Z 33006KT 01/M00 A299 RMK A01 T00121001  RH  092%=      5-min Rain = 0
KGDS 130955Z 32007KT 01/00 A299 RMK A01 T001200-0  RH  093%=      5-min Rain = 0
KGDS 131000Z 33006KT 01/00 A2989 RMK A01 T001200-0  RH  093%=      5-min Rain = 0
KGDS 131005Z 33006KT 01/M00 A2989 RMK A01 T00121001  RH  093%=      5-min Rain = 0
KGDS 131010Z 33007KT 01/M00 A2989 RMK A01 T00101002  RH  092%=      5-min Rain = 0
KGDS 131015Z 32006KT 01/M00 A2989 RMK A01 T00081004  RH  093%=      5-min Rain = 0
KGDS 131020Z 31006KT 01/M00 A2989 RMK A01 T00101002  RH  093%=      5-min Rain = 0
KGDS 131025Z 31007KT 01/M00 A2989 RMK A01 T00101002  RH  093%=      5-min Rain = 0
KGDS 131030Z 32008KT 01/M00 A2989 RMK A01 T00091002  RH  093%=      5-min Rain = 0
KGDS 131035Z 31007KT 01/M00 A2989 RMK A01 T00091002  RH  093%=      5-min Rain = 0
KGDS 131040Z 31007KT 01/M00 A2989 RMK A01 T00091002  RH  093%=      5-min Rain = 0
KGDS 131045Z 30006KT 01/M00 A2989 RMK A01 T00091002  RH  094%=      5-min Rain = 0
KGDS 131050Z 30006KT 01/M00 A2989 RMK A01 T00091002  RH  094%=      5-min Rain = 0
KGDS 131055Z 30007KT 01/M00 A2989 RMK A01 T00091001  RH  094%=      5-min Rain = 0
KGDS 131100Z 30007KT 01/M00 A2989 RMK A01 T00091001  RH  094%=      5-min Rain = 0
KGDS 131105Z 30007KT 01/M00 A2989 RMK A01 T00091001  RH  094%=      5-min Rain = 0
KGDS 131110Z 30008KT 01/M00 A2989 RMK A01 T00081002  RH  094%=      5-min Rain = 0
KGDS 131115Z 30008KT 01/M00 A2989 RMK A01 T00091001  RH  094%=      5-min Rain = 0
KGDS 131120Z 31009KT 01/M00 A2989 RMK A01 T00081002  RH  094%=      5-min Rain = 0
KGDS 131125Z 31009KT 01/M00 A2989 RMK A01 T00061004  RH  094%=      5-min Rain = 0
KGDS 131130Z 31009KT 01/M00 A2989 RMK A01 T00051004  RH  094%=      5-min Rain = 0
KGDS 131135Z 31008KT 01/M00 A299 RMK A01 T00051004  RH  095%=      5-min Rain = 0
KGDS 131140Z 31008KT 01/M00 A2989 RMK A01 T00051004  RH  095%=      5-min Rain = 0
KGDS 131145Z 31007KT 01/M00 A299 RMK A01 T00061003  RH  095%=      5-min Rain = 0
KGDS 131150Z 30006KT 00/M01 A2989 RMK A01 T00041005  RH  095%=      5-min Rain = 0
KGDS 131155Z 29006KT 00/M01 A299 RMK A01 T00031007  RH  095%=      5-min Rain = 0
KGDS 131200Z 29007KT 00/M01 A299 RMK A01 T00021006  RH  095%=      5-min Rain = 0
KGDS 131205Z 30008KT 00/M00 A299 RMK A01 T00041004  RH  095%=      5-min Rain = 0
KGDS 131210Z 30009KT 01/M00 A299 RMK A01 T00051003  RH  095%=      5-min Rain = 0
KGDS 131215Z 30008KT 01/M00 A2989 RMK A01 T00061002  RH  095%=      5-min Rain = 0
KGDS 131220Z 31007KT 01/00 A2989 RMK A01 T000800-0  RH  095%=      5-min Rain = 0
KGDS 131225Z 30007KT 01/00 A2989 RMK A01 T00100001  RH  095%=      5-min Rain = 0
KGDS 131230Z 30005KT 01/00 A299 RMK A01 T00100000  RH  095%=      5-min Rain = 0
KGDS 131235Z 30006KT 01/00 A299 RMK A01 T00100001  RH  095%=      5-min Rain = 0
KGDS 131240Z 30007KT 01/00 A299 RMK A01 T00110001  RH  094%=      5-min Rain = 0
KGDS 131245Z 30008KT 01/M00 A299 RMK A01 T00091001  RH  094%=      5-min Rain = 0
KGDS 131250Z 30008KT 01/M00 A2991 RMK A01 T00081002  RH  094%=      5-min Rain = 0
KGDS 131255Z 31008KT 01/M00 A299 RMK A01 T00071003  RH  094%=      5-min Rain = 0
KGDS 131300Z 31009KT 01/M00 A299 RMK A01 T00071004  RH  094%=      5-min Rain = 0
KGDS 131305Z 30009KT 01/M00 A299 RMK A01 T00061004  RH  094%=      5-min Rain = 0
KGDS 131310Z 30008KT 01/M00 A299 RMK A01 T00081003  RH  094%=      5-min Rain = 0
KGDS 131315Z 27005KT 01/M01 A299 RMK A01 T00061006  RH  093%=      5-min Rain = 0
KGDS 131320Z 25004KT 00/M01 A299 RMK A01 T00031007  RH  094%=      5-min Rain = 0
KGDS 131325Z 27005KT 00/M01 A299 RMK A01 T00041006  RH  094%=      5-min Rain = 0
KGDS 131330Z 28005KT 00/M01 A299 RMK A01 T00021008  RH  094%=      5-min Rain = 0
KGDS 131335Z 27003KT 00/M01 A299 RMK A01 T00011010  RH  094%=      5-min Rain = 0
KGDS 131340Z 28004KT M00/M01 A299 RMK A01 T10031013  RH  094%=      5-min Rain = 0
KGDS 131345Z 28001KT M00/M01 A2989 RMK A01 T10021012  RH  094%=      5-min Rain = 0
KGDS 131350Z 21000KT M00/M01 A299 RMK A01 T10021011  RH  095%=      5-min Rain = 0
KGDS 131355Z 29000KT M00/M01 A299 RMK A01 T10031013  RH  094%=      5-min Rain = 0
KGDS 131400Z 28003KT 00/M01 A299 RMK A01 T00011007  RH  095%=      5-min Rain = 0
KGDS 131405Z 27001KT 00/M01 A299 RMK A01 T00031007  RH  094%=      5-min Rain = 0
KGDS 131410Z 28003KT 00/M01 A299 RMK A01 T00031009  RH  093%=      5-min Rain = 0
KGDS 131415Z 27004KT M00/M01 A2989 RMK A01 T10011013  RH  093%=      5-min Rain = 0
KGDS 131420Z 26005KT M00/M01 A2989 RMK A01 T10021013  RH  093%=      5-min Rain = 0
KGDS 131425Z 24005KT M00/M01 A299 RMK A01 T10031013  RH  093%=      5-min Rain = 0
KGDS 131430Z 23005KT 00/01 A299 RMK A01 T000000-9  RH  094%=      5-min Rain = 0
KGDS 131435Z 23005KT 00/M01 A299 RMK A01 T00041006  RH  094%=      5-min Rain = 0
KGDS 131440Z 23004KT 01/M00 A299 RMK A01 T00071003  RH  094%=      5-min Rain = 0
KGDS 131445Z 24004KT 01/M00 A299 RMK A01 T00101001  RH  093%=      5-min Rain = 0
KGDS 131450Z 24004KT 02/00 A299 RMK A01 T00160004  RH  093%=      5-min Rain = 0
KGDS 131455Z 24005KT 02/01 A299 RMK A01 T00200007  RH  092%=      5-min Rain = 0
KGDS 131500Z 25006KT 02/01 A2991 RMK A01 T00240010  RH  091%=      5-min Rain = 0
KGDS 131505Z 24005KT 03/01 A2991 RMK A01 T00280011  RH  090%=      5-min Rain = 0
KGDS 131510Z 25004KT 03/01 A2991 RMK A01 T00310012  RH  089%=      5-min Rain = 0
KGDS 131515Z 25003KT 04/01 A2991 RMK A01 T00350014  RH  087%=      5-min Rain = 0
KGDS 131520Z 25003KT 04/02 A2992 RMK A01 T00390016  RH  086%=      5-min Rain = 0
KGDS 131525Z 25003KT 04/02 A2992 RMK A01 T00410016  RH  085%=      5-min Rain = 0
KGDS 131530Z 23004KT 04/02 A2992 RMK A01 T00430018  RH  085%=      5-min Rain = 0
KGDS 131535Z 23004KT 05/02 A2992 RMK A01 T00450018  RH  084%=      5-min Rain = 0
KGDS 131540Z 24004KT 05/02 A2992 RMK A01 T00480018  RH  082%=      5-min Rain = 0
KGDS 131545Z 22005KT 05/02 A2992 RMK A01 T00520017  RH  079%=      5-min Rain = 0
KGDS 131550Z 22006KT 05/02 A2992 RMK A01 T00540016  RH  078%=      5-min Rain = 0
KGDS 131555Z 22006KT 06/02 A2992 RMK A01 T00580017  RH  076%=      5-min Rain = 0
KGDS 131600Z 22005KT 07/02 A2992 RMK A01 T00650018  RH  073%=      5-min Rain = 0
KGDS 131605Z 22006KT 07/02 A2991 RMK A01 T00670017  RH  071%=      5-min Rain = 0
KGDS 131610Z 23006KT 07/02 A2991 RMK A01 T00700018  RH  070%=      5-min Rain = 0
KGDS 131615Z 24007KT 08/02 A2992 RMK A01 T00750017  RH  068%=      5-min Rain = 0
KGDS 131620Z 24005KT 08/02 A2992 RMK A01 T00780018  RH  067%=      5-min Rain = 0
KGDS 131625Z 24006KT 08/02 A2991 RMK A01 T00810018  RH  065%=      5-min Rain = 0
KGDS 131630Z 24006KT 08/02 A2991 RMK A01 T00840019  RH  065%=      5-min Rain = 0
KGDS 131635Z 25005KT 09/02 A2991 RMK A01 T00880020  RH  063%=      5-min Rain = 0
KGDS 131640Z 25004KT 09/02 A2991 RMK A01 T00940023  RH  062%=      5-min Rain = 0
KGDS 131645Z 26005KT 10/02 A2991 RMK A01 T01010024  RH  060%=      5-min Rain = 0
KGDS 131650Z 26003KT 10/02 A2991 RMK A01 T01030023  RH  058%=      5-min Rain = 0
KGDS 131655Z 27004KT 11/02 A299 RMK A01 T01080021  RH  056%=      5-min Rain = 0
KGDS 131700Z 28004KT 11/02 A299 RMK A01 T01140021  RH  053%=      5-min Rain = 0
KGDS 131705Z 26003KT 12/02 A299 RMK A01 T01160018  RH  052%=      5-min Rain = 0
KGDS 131710Z 28003KT 12/02 A299 RMK A01 T01190018  RH  051%=      5-min Rain = 0
KGDS 131715Z 27002KT 12/02 A2989 RMK A01 T01230018  RH  050%=      5-min Rain = 0
KGDS 131720Z 27002KT 13/02 A2989 RMK A01 T01260019  RH  049%=      5-min Rain = 0
KGDS 131725Z 20001KT 13/02 A2989 RMK A01 T01300019  RH  048%=      5-min Rain = 0
KGDS 131730Z 11001KT 14/02 A2988 RMK A01 T01370021  RH  046%=      5-min Rain = 0
KGDS 131735Z 16002KT 14/02 A2987 RMK A01 T01400022  RH  046%=      5-min Rain = 0
KGDS 131740Z 19002KT 14/02 A2987 RMK A01 T01390022  RH  046%=      5-min Rain = 0
KGDS 131745Z 14001KT 14/02 A2987 RMK A01 T01390023  RH  046%=      5-min Rain = 0
KGDS 131750Z 20001KT 15/02 A2987 RMK A01 T01450024  RH  045%=      5-min Rain = 0
KGDS 131755Z 19001KT 15/03 A2986 RMK A01 T01460025  RH  045%=      5-min Rain = 0
KGDS 131800Z 07000KT 15/03 A2986 RMK A01 T01470026  RH  045%=      5-min Rain = 0
KGDS 131805Z 16002KT 15/03 A2986 RMK A01 T01520025  RH  043%=      5-min Rain = 0
KGDS 131810Z 19002KT 15/02 A2985 RMK A01 T01510024  RH  043%=      5-min Rain = 0
KGDS 131815Z 19003KT 15/02 A2985 RMK A01 T01530024  RH  043%=      5-min Rain = 0
KGDS 131820Z 20002KT 15/02 A2985 RMK A01 T01520023  RH  042%=      5-min Rain = 0
KGDS 131825Z 22004KT 15/02 A2985 RMK A01 T01530021  RH  041%=      5-min Rain = 0
KGDS 131830Z 20003KT 16/02 A2984 RMK A01 T01560021  RH  041%=      5-min Rain = 0
KGDS 131835Z 19004KT 16/02 A2984 RMK A01 T01560019  RH  040%=      5-min Rain = 0
KGDS 131840Z 21004KT 16/02 A2984 RMK A01 T01570018  RH  039%=      5-min Rain = 0
KGDS 131845Z 18004G9KT 16/02 A2984 RMK A01 T01600017  RH  039%=      5-min Rain = 0
KGDS 131850Z 21005KT 16/01 A2983 RMK A01 T01600012  RH  037%=      5-min Rain = 0
KGDS 131855Z 20005KT 16/01 A2983 RMK A01 T01640014  RH  037%=      5-min Rain = 0
KGDS 131900Z 24007KT 17/01 A2982 RMK A01 T01650011  RH  036%=      5-min Rain = 0
KGDS 131905Z 24005KT 16/01 A2982 RMK A01 T01640009  RH  036%=      5-min Rain = 0
KGDS 131910Z 23006KT 17/01 A2982 RMK A01 T01650010  RH  036%=      5-min Rain = 0
KGDS 131915Z 23005G10KT 17/01 A2982 RMK A01 T01660011  RH  035%=      5-min Rain = 0
KGDS 131920Z 26003KT 17/01 A2982 RMK A01 T01680009  RH  035%=      5-min Rain = 0
KGDS 131925Z 25005G10KT 17/01 A2982 RMK A01 T01710008  RH  034%=      5-min Rain = 0
KGDS 131930Z 24005KT 17/01 A2982 RMK A01 T01700005  RH  033%=      5-min Rain = 0
KGDS 131935Z 21003KT 17/01 A2982 RMK A01 T01740006  RH  033%=      5-min Rain = 0
KGDS 131940Z 22006KT 18/01 A2981 RMK A01 T01760008  RH  032%=      5-min Rain = 0
KGDS 131945Z 19004KT 18/01 A2981 RMK A01 T01760008  RH  033%=      5-min Rain = 0
KGDS 131950Z 23005G10KT 18/01 A2981 RMK A01 T01780005  RH  032%=      5-min Rain = 0
KGDS 131955Z 27006KT 18/M01 A2981 RMK A01 T01771005  RH  029%=      5-min Rain = 0
KGDS 132000Z 25004KT 18/M00 A2981 RMK A01 T01801002  RH  029%=      5-min Rain = 0
KGDS 132005Z 21003KT 18/00 A2981 RMK A01 T01810001  RH  030%=      5-min Rain = 0
KGDS 132010Z 25006KT 18/M00 A2981 RMK A01 T01821002  RH  029%=      5-min Rain = 0
KGDS 132015Z 27005KT 18/M01 A2981 RMK A01 T01811005  RH  029%=      5-min Rain = 0
KGDS 132020Z 25004KT 18/M01 A298 RMK A01 T01821005  RH  028%=      5-min Rain = 0
KGDS 132025Z 24003KT 18/M01 A2981 RMK A01 T01821005  RH  029%=      5-min Rain = 0
KGDS 132030Z 25005G10KT 19/M00 A2981 RMK A01 T01851004  RH  028%=      5-min Rain = 0
KGDS 132035Z 22005KT 18/M01 A298 RMK A01 T01841006  RH  028%=      5-min Rain = 0
KGDS 132040Z 21004KT 19/M01 A298 RMK A01 T01851006  RH  028%=      5-min Rain = 0
KGDS 132045Z 22004KT 19/M01 A2981 RMK A01 T01861005  RH  028%=      5-min Rain = 0
KGDS 132050Z 23002KT 19/M01 A2981 RMK A01 T01861006  RH  027%=      5-min Rain = 0
KGDS 132055Z 18001KT 19/M01 A298 RMK A01 T01891007  RH  027%=      5-min Rain = 0
KGDS 132100Z 24003KT 19/M01 A298 RMK A01 T01901007  RH  027%=      5-min Rain = 0
KGDS 132105Z 26003KT 19/M01 A298 RMK A01 T01921008  RH  026%=      5-min Rain = 0
KGDS 132110Z 22007KT 19/M01 A298 RMK A01 T01911006  RH  027%=      5-min Rain = 0
KGDS 132115Z 23005KT 19/M01 A298 RMK A01 T01921009  RH  026%=      5-min Rain = 0
KGDS 132120Z 26007KT 19/M02 A298 RMK A01 T01941021  RH  023%=      5-min Rain = 0
KGDS 132125Z 28007KT 20/M02 A2981 RMK A01 T01961022  RH  023%=      5-min Rain = 0
KGDS 132130Z 27006KT 20/M03 A298 RMK A01 T01951026  RH  022%=      5-min Rain = 0
KGDS 132135Z 26006KT 20/M03 A298 RMK A01 T01951026  RH  022%=      5-min Rain = 0
KGDS 132140Z 26006KT 20/M02 A298 RMK A01 T01961024  RH  023%=      5-min Rain = 0
KGDS 132145Z 26005KT 19/M03 A298 RMK A01 T01941026  RH  023%=      5-min Rain = 0
KGDS 132150Z 29003KT 20/M03 A298 RMK A01 T01951025  RH  023%=      5-min Rain = 0
KGDS 132155Z 27006KT 20/M02 A298 RMK A01 T01961022  RH  023%=      5-min Rain = 0
KGDS 132200Z 28005KT 20/M02 A298 RMK A01 T01961021  RH  023%=      5-min Rain = 0
KGDS 132205Z 26004KT 20/M02 A298 RMK A01 T01961022  RH  023%=      5-min Rain = 0
KGDS 132210Z 27003KT 20/M02 A298 RMK A01 T01961021  RH  023%=      5-min Rain = 0
KGDS 132215Z 27005KT 19/M02 A298 RMK A01 T01941019  RH  024%=      5-min Rain = 0
KGDS 132220Z 29004KT 19/M02 A2981 RMK A01 T01931019  RH  024%=      5-min Rain = 0
KGDS 132225Z 27002KT 19/M02 A298 RMK A01 T01931020  RH  024%=      5-min Rain = 0
KGDS 132230Z 26003KT 19/M02 A298 RMK A01 T01941017  RH  024%=      5-min Rain = 0
KGDS 132235Z 27004KT 19/M01 A2981 RMK A01 T01931014  RH  025%=      5-min Rain = 0
KGDS 132240Z 27005KT 19/M01 A2981 RMK A01 T01901013  RH  025%=      5-min Rain = 0
KGDS 132245Z 26004KT 19/M01 A2981 RMK A01 T01891012  RH  026%=      5-min Rain = 0
KGDS 132250Z 27003KT 19/M01 A2981 RMK A01 T01881012  RH  026%=      5-min Rain = 0
KGDS 132255Z 27003KT 19/M01 A298 RMK A01 T01871012  RH  026%=      5-min Rain = 0
KGDS 132300Z 28002KT 19/M01 A298 RMK A01 T01851012  RH  027%=      5-min Rain = 0
KGDS 132305Z 30002KT 18/M01 A2981 RMK A01 T01821011  RH  027%=      5-min Rain = 0
KGDS 132310Z 33003KT 18/M01 A2981 RMK A01 T01781011  RH  028%=      5-min Rain = 0
KGDS 132315Z 35004KT 17/M01 A2981 RMK A01 T01691012  RH  029%=      5-min Rain = 0
KGDS 132320Z 34003KT 17/M01 A2981 RMK A01 T01691014  RH  029%=      5-min Rain = 0
KGDS 132325Z 31003KT 17/M02 A2982 RMK A01 T01701015  RH  029%=      5-min Rain = 0
KGDS 132330Z 29003KT 16/M01 A2982 RMK A01 T01641013  RH  030%=      5-min Rain = 0
KGDS 132335Z 29003KT 16/M01 A2982 RMK A01 T01561012  RH  032%=      5-min Rain = 0
KGDS 132340Z 30002KT 16/M02 A2981 RMK A01 T01621015  RH  030%=      5-min Rain = 0
KGDS 132345Z 32002KT 16/M02 A2981 RMK A01 T01621015  RH  030%=      5-min Rain = 0
KGDS 132350Z 32002KT 17/M02 A2981 RMK A01 T01651015  RH  030%=      5-min Rain = 0
KGDS 132355Z 33001KT 17/M02 A2981 RMK A01 T01661015  RH  029%=      5-min Rain = 0
KGDS 140000Z 33001KT 16/M02 A2982 RMK A01 T01641015  RH  030%=      5-min Rain = 0
KGDS 140005Z 00000KT 16/M02 A2982 RMK A01 T01631015  RH  030%=      5-min Rain = 0
KGDS 140010Z 00000KT 16/M02 A2983 RMK A01 T01621015  RH  030%=      5-min Rain = 0
KGDS 140015Z 33000KT 16/M02 A2983 RMK A01 T01631015  RH  030%=      5-min Rain = 0
KGDS 140020Z 34001KT 16/M02 A2983 RMK A01 T01621015  RH  030%=      5-min Rain = 0
KGDS 140025Z 35002KT 16/M02 A2983 RMK A01 T01611015  RH  030%=      5-min Rain = 0
KGDS 140030Z 00002KT 15/M02 A2984 RMK A01 T01541015  RH  032%=      5-min Rain = 0
KGDS 140035Z 02003KT 15/M01 A2984 RMK A01 T01501014  RH  033%=      5-min Rain = 0
KGDS 140040Z 03004KT 14/M02 A2984 RMK A01 T01391016  RH  035%=      5-min Rain = 0
KGDS 140045Z 04003KT 13/M02 A2984 RMK A01 T01251020  RH  037%=      5-min Rain = 0
KGDS 140050Z 04003KT 13/M02 A2985 RMK A01 T01271018  RH  037%=      5-min Rain = 0
KGDS 140055Z 04003KT 13/M02 A2985 RMK A01 T01301017  RH  036%=      5-min Rain = 0
KGDS 140100Z 04003KT 13/M02 A2985 RMK A01 T01301016  RH  037%=      5-min Rain = 0
KGDS 140105Z 03003KT 13/M02 A2984 RMK A01 T01341016  RH  036%=      5-min Rain = 0
KGDS 140110Z 03003KT 14/M02 A2984 RMK A01 T01351016  RH  036%=      5-min Rain = 0
KGDS 140115Z 04003KT 14/M02 A2984 RMK A01 T01361015  RH  035%=      5-min Rain = 0
KGDS 140120Z 05003KT 14/M01 A2984 RMK A01 T01381014  RH  035%=      5-min Rain = 0
KGDS 140125Z 04003KT 14/M02 A2984 RMK A01 T01411015  RH  034%=      5-min Rain = 0
KGDS 140130Z 04003KT 14/M02 A2984 RMK A01 T01391015  RH  035%=      5-min Rain = 0
KGDS 140135Z 05004KT 14/M02 A2984 RMK A01 T01351015  RH  036%=      5-min Rain = 0
KGDS 140140Z 05005KT 13/M02 A2985 RMK A01 T01301015  RH  037%=      5-min Rain = 0
KGDS 140145Z 04005KT 12/M02 A2985 RMK A01 T01201015  RH  039%=      5-min Rain = 0
KGDS 140150Z 04006KT 11/M02 A2985 RMK A01 T01111015  RH  042%=      5-min Rain = 0
KGDS 140155Z 05005KT 11/M02 A2985 RMK A01 T01111016  RH  041%=      5-min Rain = 0
KGDS 140200Z 04003KT 11/M02 A2986 RMK A01 T01091016  RH  042%=      5-min Rain = 0
KGDS 140205Z 06002KT 11/M02 A2986 RMK A01 T01081016  RH  042%=      5-min Rain = 0
KGDS 140210Z 06003KT 11/M02 A2986 RMK A01 T01091016  RH  042%=      5-min Rain = 0
KGDS 140215Z 04003KT 11/M02 A2986 RMK A01 T01071016  RH  043%=      5-min Rain = 0
KGDS 140220Z 05003KT 10/M02 A2986 RMK A01 T01041016  RH  044%=      5-min Rain = 0
KGDS 140225Z 06003KT 10/M02 A2986 RMK A01 T01021016  RH  044%=      5-min Rain = 0
KGDS 140230Z 05003KT 10/M02 A2986 RMK A01 T01031016  RH  044%=      5-min Rain = 0
KGDS 140235Z 03004KT 10/M02 A2987 RMK A01 T00981016  RH  045%=      5-min Rain = 0
KGDS 140240Z 04004KT 09/M02 A2987 RMK A01 T00931016  RH  047%=      5-min Rain = 0
KGDS 140245Z 04004KT 09/M02 A2987 RMK A01 T00881016  RH  048%=      5-min Rain = 0
KGDS 140250Z 07005KT 09/M02 A2986 RMK A01 T00881016  RH  048%=      5-min Rain = 0
KGDS 140255Z 07005KT 09/M02 A2986 RMK A01 T00881016  RH  049%=      5-min Rain = 0
KGDS 140300Z 06004KT 09/M02 A2987 RMK A01 T00851015  RH  050%=      5-min Rain = 0
KGDS 140305Z 06003KT 08/M01 A2986 RMK A01 T00841013  RH  051%=      5-min Rain = 0
KGDS 140310Z 06004KT 08/M01 A2986 RMK A01 T00831012  RH  052%=      5-min Rain = 0
KGDS 140315Z 06004KT 08/M01 A2985 RMK A01 T00821010  RH  053%=      5-min Rain = 0
KGDS 140320Z 02006KT 08/M01 A2986 RMK A01 T00751009  RH  056%=      5-min Rain = 0
KGDS 140325Z 01006KT 06/M01 A2987 RMK A01 T00631009  RH  061%=      5-min Rain = 0
KGDS 140330Z 01006KT 06/M01 A2987 RMK A01 T00551011  RH  063%=      5-min Rain = 0
KGDS 140335Z 01006KT 05/M01 A2987 RMK A01 T00521009  RH  066%=      5-min Rain = 0
KGDS 140340Z 02005KT 06/M00 A2987 RMK A01 T00551004  RH  067%=      5-min Rain = 0
KGDS 140345Z 01005KT 05/M01 A2988 RMK A01 T00521005  RH  068%=      5-min Rain = 0
KGDS 140350Z 01006KT 05/M01 A2989 RMK A01 T00491005  RH  069%=      5-min Rain = 0
KGDS 140355Z 00007KT 05/M00 A2989 RMK A01 T00481003  RH  070%=      5-min Rain = 0
KGDS 140400Z 01007KT 05/M00 A2989 RMK A01 T00481001  RH  072%=      5-min Rain = 0
KGDS 140405Z 01006KT 05/00 A2989 RMK A01 T00490002  RH  072%=      5-min Rain = 0
KGDS 140410Z 00005KT 05/00 A299 RMK A01 T00490001  RH  072%=      5-min Rain = 0
KGDS 140415Z 36003KT 05/00 A299 RMK A01 T00500003  RH  073%=      5-min Rain = 0
KGDS 140420Z 35002KT 06/01 A299 RMK A01 T00550005  RH  071%=      5-min Rain = 0
KGDS 140425Z 03001KT 07/02 A299 RMK A01 T00690018  RH  071%=      5-min Rain = 0
KGDS 140430Z 04002KT 08/02 A299 RMK A01 T00780021  RH  068%=      5-min Rain = 0
KGDS 140435Z 04000KT 07/02 A299 RMK A01 T00730018  RH  069%=      5-min Rain = 0
KGDS 140440Z 07000KT 08/02 A299 RMK A01 T00750022  RH  070%=      5-min Rain = 0
KGDS 140445Z 03000KT 08/03 A2991 RMK A01 T00820026  RH  069%=      5-min Rain = 0
KGDS 140450Z 01001KT 08/03 A2991 RMK A01 T00830026  RH  068%=      5-min Rain = 0
KGDS 140455Z 36003KT 07/02 A299 RMK A01 T00730022  RH  071%=      5-min Rain = 0
KGDS 140500Z 00003KT 07/02 A299 RMK A01 T00690022  RH  073%=      5-min Rain = 0
KGDS 140505Z 01004KT 07/02 A299 RMK A01 T00690022  RH  073%=      5-min Rain = 0
KGDS 140510Z 35005KT 07/02 A299 RMK A01 T00680020  RH  073%=      5-min Rain = 0
KGDS 140515Z 35004KT 07/02 A299 RMK A01 T00670019  RH  073%=      5-min Rain = 0
KGDS 140520Z 34003KT 07/02 A299 RMK A01 T00680020  RH  073%=      5-min Rain = 0
KGDS 140525Z 34006KT 07/02 A299 RMK A01 T00680020  RH  072%=      5-min Rain = 0
KGDS 140530Z 33009KT 06/02 A2991 RMK A01 T00630016  RH  073%=      5-min Rain = 0
KGDS 140535Z 34008KT 06/02 A299 RMK A01 T00610017  RH  074%=      5-min Rain = 0
KGDS 140540Z 35007KT 06/02 A299 RMK A01 T00600015  RH  074%=      5-min Rain = 0
KGDS 140545Z 35007KT 06/01 A299 RMK A01 T00570014  RH  075%=      5-min Rain = 0
KGDS 140550Z 35007KT 06/02 A2991 RMK A01 T00580015  RH  075%=      5-min Rain = 0
KGDS 140555Z 36007KT 06/02 A299 RMK A01 T00600017  RH  075%=      5-min Rain = 0

Page generated in 0.0086 seconds.